sensor_id;sensor_type;location;lat;lon;timestamp;P1;durP1;ratioP1;P2;durP2;ratioP2
15256;SDS011;7731;50.720;6.912;2023-03-05T00:02:05;7.17;;;2.53;;
15256;SDS011;7731;50.720;6.912;2023-03-05T00:04:35;8.07;;;2.20;;
15256;SDS011;7731;50.720;6.912;2023-03-05T00:07:12;8.43;;;2.00;;
15256;SDS011;7731;50.720;6.912;2023-03-05T00:09:42;9.83;;;2.60;;
15256;SDS011;7731;50.720;6.912;2023-03-05T00:12:12;4.97;;;2.07;;
15256;SDS011;7731;50.720;6.912;2023-03-05T00:14:42;5.20;;;1.93;;
15256;SDS011;7731;50.720;6.912;2023-03-05T00:17:13;7.87;;;2.13;;
15256;SDS011;7731;50.720;6.912;2023-03-05T00:19:43;5.37;;;2.17;;
15256;SDS011;7731;50.720;6.912;2023-03-05T00:22:16;7.70;;;2.40;;
15256;SDS011;7731;50.720;6.912;2023-03-05T00:24:49;5.83;;;2.00;;
15256;SDS011;7731;50.720;6.912;2023-03-05T00:27:19;6.20;;;2.10;;
15256;SDS011;7731;50.720;6.912;2023-03-05T00:29:49;9.10;;;2.43;;
15256;SDS011;7731;50.720;6.912;2023-03-05T00:32:19;7.07;;;2.70;;
15256;SDS011;7731;50.720;6.912;2023-03-05T00:34:49;8.50;;;2.33;;
15256;SDS011;7731;50.720;6.912;2023-03-05T00:37:24;9.37;;;3.03;;
15256;SDS011;7731;50.720;6.912;2023-03-05T00:39:54;6.37;;;2.60;;
15256;SDS011;7731;50.720;6.912;2023-03-05T00:42:25;11.37;;;2.63;;
15256;SDS011;7731;50.720;6.912;2023-03-05T00:44:55;9.00;;;2.23;;
15256;SDS011;7731;50.720;6.912;2023-03-05T00:47:26;7.20;;;2.30;;
15256;SDS011;7731;50.720;6.912;2023-03-05T00:49:56;8.40;;;2.10;;
15256;SDS011;7731;50.720;6.912;2023-03-05T00:52:29;7.63;;;2.20;;
15256;SDS011;7731;50.720;6.912;2023-03-05T00:54:59;13.33;;;2.50;;
15256;SDS011;7731;50.720;6.912;2023-03-05T00:57:29;7.17;;;2.67;;
15256;SDS011;7731;50.720;6.912;2023-03-05T01:00:00;10.80;;;2.43;;
15256;SDS011;7731;50.720;6.912;2023-03-05T01:02:30;11.87;;;2.20;;
15256;SDS011;7731;50.720;6.912;2023-03-05T01:05:00;10.03;;;2.80;;
15256;SDS011;7731;50.720;6.912;2023-03-05T01:07:33;7.13;;;2.73;;
15256;SDS011;7731;50.720;6.912;2023-03-05T01:10:04;7.83;;;2.57;;
15256;SDS011;7731;50.720;6.912;2023-03-05T01:12:37;6.77;;;2.80;;
15256;SDS011;7731;50.720;6.912;2023-03-05T01:15:07;11.77;;;2.43;;
15256;SDS011;7731;50.720;6.912;2023-03-05T01:17:38;7.93;;;2.20;;
15256;SDS011;7731;50.720;6.912;2023-03-05T01:20:11;7.40;;;2.60;;
15256;SDS011;7731;50.720;6.912;2023-03-05T01:22:50;6.50;;;2.10;;
15256;SDS011;7731;50.720;6.912;2023-03-05T01:25:22;7.13;;;1.63;;
15256;SDS011;7731;50.720;6.912;2023-03-05T01:27:54;7.67;;;2.00;;
15256;SDS011;7731;50.720;6.912;2023-03-05T01:30:27;11.37;;;2.70;;
15256;SDS011;7731;50.720;6.912;2023-03-05T01:32:57;5.27;;;1.93;;
15256;SDS011;7731;50.720;6.912;2023-03-05T01:35:29;5.27;;;2.03;;
15256;SDS011;7731;50.720;6.912;2023-03-05T01:38:03;5.07;;;1.60;;
15256;SDS011;7731;50.720;6.912;2023-03-05T01:40:34;6.07;;;1.70;;
15256;SDS011;7731;50.720;6.912;2023-03-05T01:43:07;7.63;;;1.53;;
15256;SDS011;7731;50.720;6.912;2023-03-05T01:48:55;6.33;;;1.73;;
15256;SDS011;7731;50.720;6.912;2023-03-05T01:51:35;5.37;;;1.73;;
15256;SDS011;7731;50.720;6.912;2023-03-05T01:54:12;6.07;;;2.10;;
15256;SDS011;7731;50.720;6.912;2023-03-05T01:56:50;12.30;;;2.50;;
15256;SDS011;7731;50.720;6.912;2023-03-05T01:59:24;4.13;;;1.77;;
15256;SDS011;7731;50.720;6.912;2023-03-05T02:01:56;6.23;;;1.87;;
15256;SDS011;7731;50.720;6.912;2023-03-05T02:04:30;6.90;;;2.23;;
15256;SDS011;7731;50.720;6.912;2023-03-05T02:07:12;8.27;;;2.10;;
15256;SDS011;7731;50.720;6.912;2023-03-05T02:09:49;11.33;;;2.63;;
15256;SDS011;7731;50.720;6.912;2023-03-05T02:12:19;9.30;;;2.40;;
15256;SDS011;7731;50.720;6.912;2023-03-05T02:14:52;12.07;;;3.50;;
15256;SDS011;7731;50.720;6.912;2023-03-05T02:17:26;9.07;;;2.77;;
15256;SDS011;7731;50.720;6.912;2023-03-05T02:20:02;8.70;;;2.77;;
15256;SDS011;7731;50.720;6.912;2023-03-05T02:22:41;6.10;;;2.00;;
15256;SDS011;7731;50.720;6.912;2023-03-05T02:25:15;11.03;;;2.40;;
15256;SDS011;7731;50.720;6.912;2023-03-05T02:27:50;5.27;;;2.00;;
15256;SDS011;7731;50.720;6.912;2023-03-05T02:30:26;8.23;;;2.23;;
15256;SDS011;7731;50.720;6.912;2023-03-05T02:32:57;3.53;;;1.33;;
15256;SDS011;7731;50.720;6.912;2023-03-05T02:35:27;4.30;;;1.70;;
15256;SDS011;7731;50.720;6.912;2023-03-05T02:38:00;6.80;;;1.50;;
15256;SDS011;7731;50.720;6.912;2023-03-05T02:40:30;7.77;;;1.60;;
15256;SDS011;7731;50.720;6.912;2023-03-05T02:43:00;4.93;;;1.43;;
15256;SDS011;7731;50.720;6.912;2023-03-05T02:45:31;7.13;;;1.60;;
15256;SDS011;7731;50.720;6.912;2023-03-05T02:48:02;5.07;;;1.50;;
15256;SDS011;7731;50.720;6.912;2023-03-05T02:50:37;3.40;;;1.80;;
15256;SDS011;7731;50.720;6.912;2023-03-05T02:53:11;6.50;;;1.77;;
15256;SDS011;7731;50.720;6.912;2023-03-05T02:55:44;6.93;;;2.00;;
15256;SDS011;7731;50.720;6.912;2023-03-05T02:58:15;4.10;;;1.40;;
15256;SDS011;7731;50.720;6.912;2023-03-05T03:00:46;5.30;;;1.70;;
15256;SDS011;7731;50.720;6.912;2023-03-05T03:03:16;9.77;;;2.00;;
15256;SDS011;7731;50.720;6.912;2023-03-05T03:05:49;5.40;;;1.73;;
15256;SDS011;7731;50.720;6.912;2023-03-05T03:08:22;4.13;;;1.50;;
15256;SDS011;7731;50.720;6.912;2023-03-05T03:10:52;6.13;;;1.70;;
15256;SDS011;7731;50.720;6.912;2023-03-05T03:13:23;5.87;;;1.57;;
15256;SDS011;7731;50.720;6.912;2023-03-05T03:16:00;5.87;;;2.00;;
15256;SDS011;7731;50.720;6.912;2023-03-05T03:18:38;6.60;;;1.97;;
15256;SDS011;7731;50.720;6.912;2023-03-05T03:21:15;5.93;;;1.93;;
15256;SDS011;7731;50.720;6.912;2023-03-05T03:23:50;3.37;;;1.47;;
15256;SDS011;7731;50.720;6.912;2023-03-05T03:26:20;5.13;;;1.60;;
15256;SDS011;7731;50.720;6.912;2023-03-05T03:28:51;6.93;;;1.97;;
15256;SDS011;7731;50.720;6.912;2023-03-05T03:31:21;5.37;;;2.10;;
15256;SDS011;7731;50.720;6.912;2023-03-05T03:33:51;5.23;;;1.87;;
15256;SDS011;7731;50.720;6.912;2023-03-05T03:36:22;9.70;;;1.77;;
15256;SDS011;7731;50.720;6.912;2023-03-05T03:38:54;5.23;;;1.47;;
15256;SDS011;7731;50.720;6.912;2023-03-05T03:41:25;4.17;;;1.40;;
15256;SDS011;7731;50.720;6.912;2023-03-05T03:43:55;3.83;;;1.60;;
15256;SDS011;7731;50.720;6.912;2023-03-05T03:46:25;4.97;;;1.60;;
15256;SDS011;7731;50.720;6.912;2023-03-05T03:48:55;6.60;;;1.63;;
15256;SDS011;7731;50.720;6.912;2023-03-05T03:51:25;4.63;;;1.80;;
15256;SDS011;7731;50.720;6.912;2023-03-05T03:53:58;4.47;;;1.53;;
15256;SDS011;7731;50.720;6.912;2023-03-05T03:56:29;2.83;;;1.07;;
15256;SDS011;7731;50.720;6.912;2023-03-05T03:58:59;6.23;;;1.40;;
15256;SDS011;7731;50.720;6.912;2023-03-05T04:01:29;6.63;;;1.93;;
15256;SDS011;7731;50.720;6.912;2023-03-05T04:04:00;6.03;;;1.50;;
15256;SDS011;7731;50.720;6.912;2023-03-05T04:06:31;7.33;;;1.87;;
15256;SDS011;7731;50.720;6.912;2023-03-05T04:09:05;4.43;;;1.60;;
15256;SDS011;7731;50.720;6.912;2023-03-05T04:11:39;3.63;;;1.67;;
15256;SDS011;7731;50.720;6.912;2023-03-05T04:14:09;4.93;;;1.70;;
15256;SDS011;7731;50.720;6.912;2023-03-05T04:16:39;3.30;;;1.50;;
15256;SDS011;7731;50.720;6.912;2023-03-05T04:19:09;4.10;;;1.40;;
15256;SDS011;7731;50.720;6.912;2023-03-05T04:21:39;4.37;;;1.80;;
15256;SDS011;7731;50.720;6.912;2023-03-05T04:24:12;4.03;;;1.33;;
15256;SDS011;7731;50.720;6.912;2023-03-05T04:26:43;10.30;;;1.70;;
15256;SDS011;7731;50.720;6.912;2023-03-05T04:29:13;6.50;;;1.83;;
15256;SDS011;7731;50.720;6.912;2023-03-05T04:31:43;8.03;;;1.67;;
15256;SDS011;7731;50.720;6.912;2023-03-05T04:34:13;2.23;;;1.43;;
15256;SDS011;7731;50.720;6.912;2023-03-05T04:36:43;5.67;;;1.30;;
15256;SDS011;7731;50.720;6.912;2023-03-05T04:39:16;6.93;;;1.97;;
15256;SDS011;7731;50.720;6.912;2023-03-05T04:41:47;5.20;;;1.37;;
15256;SDS011;7731;50.720;6.912;2023-03-05T04:44:17;4.87;;;1.40;;
15256;SDS011;7731;50.720;6.912;2023-03-05T04:46:48;5.37;;;1.60;;
15256;SDS011;7731;50.720;6.912;2023-03-05T04:49:21;6.97;;;1.70;;
15256;SDS011;7731;50.720;6.912;2023-03-05T04:51:51;3.47;;;1.10;;
15256;SDS011;7731;50.720;6.912;2023-03-05T04:54:27;6.10;;;1.50;;
15256;SDS011;7731;50.720;6.912;2023-03-05T04:56:57;6.90;;;1.30;;
15256;SDS011;7731;50.720;6.912;2023-03-05T04:59:27;9.03;;;1.50;;
15256;SDS011;7731;50.720;6.912;2023-03-05T05:01:58;6.07;;;1.40;;
15256;SDS011;7731;50.720;6.912;2023-03-05T05:04:28;3.10;;;1.23;;
15256;SDS011;7731;50.720;6.912;2023-03-05T05:06:58;4.80;;;1.60;;
15256;SDS011;7731;50.720;6.912;2023-03-05T05:09:37;5.33;;;1.23;;
15256;SDS011;7731;50.720;6.912;2023-03-05T05:12:08;5.27;;;1.13;;
15256;SDS011;7731;50.720;6.912;2023-03-05T05:14:38;3.67;;;1.20;;
15256;SDS011;7731;50.720;6.912;2023-03-05T05:17:08;8.03;;;1.97;;
15256;SDS011;7731;50.720;6.912;2023-03-05T05:19:39;5.80;;;1.63;;
15256;SDS011;7731;50.720;6.912;2023-03-05T05:22:09;3.33;;;1.73;;
15256;SDS011;7731;50.720;6.912;2023-03-05T05:24:44;4.73;;;1.50;;
15256;SDS011;7731;50.720;6.912;2023-03-05T05:27:17;9.73;;;1.60;;
15256;SDS011;7731;50.720;6.912;2023-03-05T05:29:47;6.67;;;2.10;;
15256;SDS011;7731;50.720;6.912;2023-03-05T05:32:21;4.17;;;1.40;;
15256;SDS011;7731;50.720;6.912;2023-03-05T05:34:55;7.13;;;1.60;;
15256;SDS011;7731;50.720;6.912;2023-03-05T05:37:28;4.80;;;1.40;;
15256;SDS011;7731;50.720;6.912;2023-03-05T05:40:01;8.17;;;1.77;;
15256;SDS011;7731;50.720;6.912;2023-03-05T05:42:36;6.63;;;1.60;;
15256;SDS011;7731;50.720;6.912;2023-03-05T05:45:07;5.90;;;1.57;;
15256;SDS011;7731;50.720;6.912;2023-03-05T05:47:39;4.10;;;1.90;;
15256;SDS011;7731;50.720;6.912;2023-03-05T05:50:10;8.13;;;2.00;;
15256;SDS011;7731;50.720;6.912;2023-03-05T05:52:43;4.43;;;2.20;;
15256;SDS011;7731;50.720;6.912;2023-03-05T05:55:15;7.43;;;1.83;;
15256;SDS011;7731;50.720;6.912;2023-03-05T05:57:46;6.27;;;2.33;;
15256;SDS011;7731;50.720;6.912;2023-03-05T06:00:17;5.20;;;2.10;;
15256;SDS011;7731;50.720;6.912;2023-03-05T06:02:48;5.47;;;2.30;;
15256;SDS011;7731;50.720;6.912;2023-03-05T06:05:19;8.83;;;2.10;;
15256;SDS011;7731;50.720;6.912;2023-03-05T06:07:50;8.00;;;1.97;;
15256;SDS011;7731;50.720;6.912;2023-03-05T06:10:25;8.87;;;2.77;;
15256;SDS011;7731;50.720;6.912;2023-03-05T06:12:56;10.37;;;2.37;;
15256;SDS011;7731;50.720;6.912;2023-03-05T06:15:26;7.43;;;3.17;;
15256;SDS011;7731;50.720;6.912;2023-03-05T06:17:58;6.57;;;2.27;;
15256;SDS011;7731;50.720;6.912;2023-03-05T06:20:29;6.67;;;2.60;;
15256;SDS011;7731;50.720;6.912;2023-03-05T06:22:59;10.07;;;2.80;;
15256;SDS011;7731;50.720;6.912;2023-03-05T06:25:34;8.00;;;2.17;;
15256;SDS011;7731;50.720;6.912;2023-03-05T06:28:06;9.37;;;2.20;;
15256;SDS011;7731;50.720;6.912;2023-03-05T06:30:36;10.67;;;2.40;;
15256;SDS011;7731;50.720;6.912;2023-03-05T06:33:06;7.70;;;1.87;;
15256;SDS011;7731;50.720;6.912;2023-03-05T06:35:37;8.43;;;2.77;;
15256;SDS011;7731;50.720;6.912;2023-03-05T06:38:07;6.43;;;2.63;;
15256;SDS011;7731;50.720;6.912;2023-03-05T06:40:40;7.17;;;2.97;;
15256;SDS011;7731;50.720;6.912;2023-03-05T06:43:11;9.67;;;2.70;;
15256;SDS011;7731;50.720;6.912;2023-03-05T06:45:41;6.40;;;2.87;;
15256;SDS011;7731;50.720;6.912;2023-03-05T06:48:11;8.93;;;3.00;;
15256;SDS011;7731;50.720;6.912;2023-03-05T06:50:41;6.03;;;2.40;;
15256;SDS011;7731;50.720;6.912;2023-03-05T06:53:11;7.63;;;2.63;;
15256;SDS011;7731;50.720;6.912;2023-03-05T06:55:44;6.63;;;2.33;;
15256;SDS011;7731;50.720;6.912;2023-03-05T06:58:14;3.70;;;2.03;;
15256;SDS011;7731;50.720;6.912;2023-03-05T07:00:45;9.90;;;3.07;;
15256;SDS011;7731;50.720;6.912;2023-03-05T07:03:15;5.17;;;2.63;;
15256;SDS011;7731;50.720;6.912;2023-03-05T07:05:46;7.93;;;2.60;;
15256;SDS011;7731;50.720;6.912;2023-03-05T07:08:16;5.63;;;2.30;;
15256;SDS011;7731;50.720;6.912;2023-03-05T07:10:49;7.90;;;2.40;;
15256;SDS011;7731;50.720;6.912;2023-03-05T07:13:19;8.33;;;3.80;;
15256;SDS011;7731;50.720;6.912;2023-03-05T07:15:50;6.13;;;3.17;;
15256;SDS011;7731;50.720;6.912;2023-03-05T07:18:20;11.00;;;3.07;;
15256;SDS011;7731;50.720;6.912;2023-03-05T07:20:50;9.63;;;3.43;;
15256;SDS011;7731;50.720;6.912;2023-03-05T07:23:20;8.10;;;3.37;;
15256;SDS011;7731;50.720;6.912;2023-03-05T07:25:53;8.87;;;3.27;;
15256;SDS011;7731;50.720;6.912;2023-03-05T07:28:23;8.33;;;2.93;;
15256;SDS011;7731;50.720;6.912;2023-03-05T07:30:54;8.67;;;2.50;;
15256;SDS011;7731;50.720;6.912;2023-03-05T07:33:26;7.57;;;2.60;;
15256;SDS011;7731;50.720;6.912;2023-03-05T07:35:57;8.67;;;3.10;;
15256;SDS011;7731;50.720;6.912;2023-03-05T07:38:29;9.20;;;3.20;;
15256;SDS011;7731;50.720;6.912;2023-03-05T07:41:06;9.43;;;3.43;;
15256;SDS011;7731;50.720;6.912;2023-03-05T07:43:41;6.30;;;3.60;;
15256;SDS011;7731;50.720;6.912;2023-03-05T07:46:14;13.33;;;3.33;;
15256;SDS011;7731;50.720;6.912;2023-03-05T07:48:48;7.00;;;4.03;;
15256;SDS011;7731;50.720;6.912;2023-03-05T07:51:20;13.07;;;3.67;;
15256;SDS011;7731;50.720;6.912;2023-03-05T07:53:52;8.93;;;3.13;;
15256;SDS011;7731;50.720;6.912;2023-03-05T07:56:28;8.20;;;3.03;;
15256;SDS011;7731;50.720;6.912;2023-03-05T07:59:02;7.07;;;3.20;;
15256;SDS011;7731;50.720;6.912;2023-03-05T08:01:35;9.83;;;3.20;;
15256;SDS011;7731;50.720;6.912;2023-03-05T08:04:06;8.03;;;3.73;;
15256;SDS011;7731;50.720;6.912;2023-03-05T08:06:40;7.33;;;3.13;;
15256;SDS011;7731;50.720;6.912;2023-03-05T08:09:12;8.97;;;3.07;;
15256;SDS011;7731;50.720;6.912;2023-03-05T08:11:45;9.60;;;3.43;;
15256;SDS011;7731;50.720;6.912;2023-03-05T08:14:17;9.47;;;3.50;;
15256;SDS011;7731;50.720;6.912;2023-03-05T08:16:47;6.67;;;3.03;;
15256;SDS011;7731;50.720;6.912;2023-03-05T08:19:18;9.03;;;3.47;;
15256;SDS011;7731;50.720;6.912;2023-03-05T08:21:51;9.53;;;3.33;;
15256;SDS011;7731;50.720;6.912;2023-03-05T08:24:21;14.43;;;4.23;;
15256;SDS011;7731;50.720;6.912;2023-03-05T08:26:57;16.40;;;3.53;;
15256;SDS011;7731;50.720;6.912;2023-03-05T08:29:30;8.43;;;4.03;;
15256;SDS011;7731;50.720;6.912;2023-03-05T08:32:00;9.80;;;3.73;;
15256;SDS011;7731;50.720;6.912;2023-03-05T08:34:31;7.30;;;3.60;;
15256;SDS011;7731;50.720;6.912;2023-03-05T08:37:01;10.90;;;4.20;;
15256;SDS011;7731;50.720;6.912;2023-03-05T08:39:37;7.40;;;4.13;;
15256;SDS011;7731;50.720;6.912;2023-03-05T08:42:09;8.00;;;4.10;;
15256;SDS011;7731;50.720;6.912;2023-03-05T08:44:40;12.40;;;4.83;;
15256;SDS011;7731;50.720;6.912;2023-03-05T08:47:10;7.13;;;4.30;;
15256;SDS011;7731;50.720;6.912;2023-03-05T08:49:41;11.90;;;5.40;;
15256;SDS011;7731;50.720;6.912;2023-03-05T08:52:11;14.50;;;5.13;;
15256;SDS011;7731;50.720;6.912;2023-03-05T08:54:42;14.50;;;4.40;;
15256;SDS011;7731;50.720;6.912;2023-03-05T08:57:14;15.17;;;4.23;;
15256;SDS011;7731;50.720;6.912;2023-03-05T08:59:45;9.30;;;4.50;;
15256;SDS011;7731;50.720;6.912;2023-03-05T09:02:15;7.70;;;3.87;;
15256;SDS011;7731;50.720;6.912;2023-03-05T09:04:45;13.50;;;4.80;;
15256;SDS011;7731;50.720;6.912;2023-03-05T09:07:17;7.93;;;3.93;;
15256;SDS011;7731;50.720;6.912;2023-03-05T09:09:48;6.77;;;3.90;;
15256;SDS011;7731;50.720;6.912;2023-03-05T09:12:23;7.87;;;4.10;;
15256;SDS011;7731;50.720;6.912;2023-03-05T09:14:54;11.43;;;4.40;;
15256;SDS011;7731;50.720;6.912;2023-03-05T09:17:25;8.93;;;3.67;;
15256;SDS011;7731;50.720;6.912;2023-03-05T09:19:55;8.23;;;4.10;;
15256;SDS011;7731;50.720;6.912;2023-03-05T09:22:25;8.53;;;4.00;;
15256;SDS011;7731;50.720;6.912;2023-03-05T09:24:57;7.27;;;3.50;;
15256;SDS011;7731;50.720;6.912;2023-03-05T09:27:33;5.00;;;3.03;;
15256;SDS011;7731;50.720;6.912;2023-03-05T09:30:04;7.73;;;3.30;;
15256;SDS011;7731;50.720;6.912;2023-03-05T09:32:37;8.20;;;3.60;;
15256;SDS011;7731;50.720;6.912;2023-03-05T09:35:08;5.73;;;3.37;;
15256;SDS011;7731;50.720;6.912;2023-03-05T09:37:39;5.97;;;3.40;;
15256;SDS011;7731;50.720;6.912;2023-03-05T09:40:12;7.27;;;3.50;;
15256;SDS011;7731;50.720;6.912;2023-03-05T09:42:56;6.53;;;3.00;;
15256;SDS011;7731;50.720;6.912;2023-03-05T09:45:55;6.47;;;3.50;;
15256;SDS011;7731;50.720;6.912;2023-03-05T09:48:50;8.13;;;3.77;;
15256;SDS011;7731;50.720;6.912;2023-03-05T09:51:27;7.17;;;3.60;;
15256;SDS011;7731;50.720;6.912;2023-03-05T09:54:05;4.27;;;3.40;;
15256;SDS011;7731;50.720;6.912;2023-03-05T09:56:46;4.93;;;3.13;;
15256;SDS011;7731;50.720;6.912;2023-03-05T09:59:30;5.60;;;2.93;;
15256;SDS011;7731;50.720;6.912;2023-03-05T10:02:15;6.17;;;3.37;;
15256;SDS011;7731;50.720;6.912;2023-03-05T10:04:52;8.53;;;3.23;;
15256;SDS011;7731;50.720;6.912;2023-03-05T10:07:31;4.27;;;2.63;;
15256;SDS011;7731;50.720;6.912;2023-03-05T10:10:08;6.50;;;3.30;;
15256;SDS011;7731;50.720;6.912;2023-03-05T10:12:43;5.23;;;3.20;;
15256;SDS011;7731;50.720;6.912;2023-03-05T10:15:25;5.30;;;3.40;;
15256;SDS011;7731;50.720;6.912;2023-03-05T10:18:13;5.30;;;3.37;;
15256;SDS011;7731;50.720;6.912;2023-03-05T10:20:54;7.50;;;2.87;;
15256;SDS011;7731;50.720;6.912;2023-03-05T10:23:29;7.13;;;3.20;;
15256;SDS011;7731;50.720;6.912;2023-03-05T10:26:19;4.97;;;3.27;;
15256;SDS011;7731;50.720;6.912;2023-03-05T10:29:35;7.00;;;3.07;;
15256;SDS011;7731;50.720;6.912;2023-03-05T10:32:30;5.23;;;2.90;;
15256;SDS011;7731;50.720;6.912;2023-03-05T10:35:18;3.63;;;2.47;;
15256;SDS011;7731;50.720;6.912;2023-03-05T10:41:17;5.57;;;3.00;;
15256;SDS011;7731;50.720;6.912;2023-03-05T10:43:59;6.67;;;2.47;;
15256;SDS011;7731;50.720;6.912;2023-03-05T10:46:37;4.97;;;2.73;;
15256;SDS011;7731;50.720;6.912;2023-03-05T10:49:15;5.83;;;2.57;;
15256;SDS011;7731;50.720;6.912;2023-03-05T10:51:51;4.30;;;2.10;;
15256;SDS011;7731;50.720;6.912;2023-03-05T10:54:27;7.13;;;2.50;;
15256;SDS011;7731;50.720;6.912;2023-03-05T10:57:15;3.57;;;2.20;;
15256;SDS011;7731;50.720;6.912;2023-03-05T10:59:48;3.50;;;1.97;;
15256;SDS011;7731;50.720;6.912;2023-03-05T11:02:21;8.13;;;2.27;;
15256;SDS011;7731;50.720;6.912;2023-03-05T11:04:55;4.80;;;2.17;;
15256;SDS011;7731;50.720;6.912;2023-03-05T11:07:30;4.63;;;2.40;;
15256;SDS011;7731;50.720;6.912;2023-03-05T11:10:18;4.00;;;2.63;;
15256;SDS011;7731;50.720;6.912;2023-03-05T11:12:49;7.23;;;3.10;;
15256;SDS011;7731;50.720;6.912;2023-03-05T11:15:25;7.33;;;2.97;;
15256;SDS011;7731;50.720;6.912;2023-03-05T11:20:52;5.90;;;3.17;;
15256;SDS011;7731;50.720;6.912;2023-03-05T11:23:38;5.30;;;2.93;;
15256;SDS011;7731;50.720;6.912;2023-03-05T11:26:16;6.63;;;3.60;;
15256;SDS011;7731;50.720;6.912;2023-03-05T11:28:57;8.40;;;3.93;;
15256;SDS011;7731;50.720;6.912;2023-03-05T11:31:31;5.00;;;3.70;;
15256;SDS011;7731;50.720;6.912;2023-03-05T11:34:02;8.03;;;4.47;;
15256;SDS011;7731;50.720;6.912;2023-03-05T11:36:39;7.50;;;4.40;;
15256;SDS011;7731;50.720;6.912;2023-03-05T11:39:14;5.93;;;4.27;;
15256;SDS011;7731;50.720;6.912;2023-03-05T11:41:48;12.97;;;5.23;;
15256;SDS011;7731;50.720;6.912;2023-03-05T11:44:22;8.73;;;5.80;;
15256;SDS011;7731;50.720;6.912;2023-03-05T11:47:00;7.00;;;5.47;;
15256;SDS011;7731;50.720;6.912;2023-03-05T11:49:43;9.27;;;6.00;;
15256;SDS011;7731;50.720;6.912;2023-03-05T11:52:23;10.30;;;5.83;;
15256;SDS011;7731;50.720;6.912;2023-03-05T11:55:00;8.03;;;5.00;;
15256;SDS011;7731;50.720;6.912;2023-03-05T11:57:38;9.00;;;5.50;;
15256;SDS011;7731;50.720;6.912;2023-03-05T12:00:17;10.17;;;5.50;;
15256;SDS011;7731;50.720;6.912;2023-03-05T12:02:56;6.67;;;5.30;;
15256;SDS011;7731;50.720;6.912;2023-03-05T12:05:33;8.13;;;6.13;;
15256;SDS011;7731;50.720;6.912;2023-03-05T12:08:22;8.43;;;5.20;;
15256;SDS011;7731;50.720;6.912;2023-03-05T12:11:00;7.33;;;5.70;;
15256;SDS011;7731;50.720;6.912;2023-03-05T12:13:39;8.50;;;6.67;;
15256;SDS011;7731;50.720;6.912;2023-03-05T12:16:17;9.77;;;6.73;;
15256;SDS011;7731;50.720;6.912;2023-03-05T12:22:14;12.17;;;7.47;;
15256;SDS011;7731;50.720;6.912;2023-03-05T12:24:51;9.80;;;7.23;;
15256;SDS011;7731;50.720;6.912;2023-03-05T12:27:32;10.53;;;7.33;;
15256;SDS011;7731;50.720;6.912;2023-03-05T12:30:08;9.33;;;7.17;;
15256;SDS011;7731;50.720;6.912;2023-03-05T12:33:31;10.40;;;7.10;;
15256;SDS011;7731;50.720;6.912;2023-03-05T12:42:42;7.90;;;6.63;;
15256;SDS011;7731;50.720;6.912;2023-03-05T12:45:23;10.20;;;7.67;;
15256;SDS011;7731;50.720;6.912;2023-03-05T12:51:13;8.73;;;7.83;;
15256;SDS011;7731;50.720;6.912;2023-03-05T12:57:02;9.47;;;6.67;;
15256;SDS011;7731;50.720;6.912;2023-03-05T12:59:46;8.63;;;6.17;;
15256;SDS011;7731;50.720;6.912;2023-03-05T13:02:25;7.47;;;5.77;;
15256;SDS011;7731;50.720;6.912;2023-03-05T13:05:03;9.63;;;6.17;;
15256;SDS011;7731;50.720;6.912;2023-03-05T13:07:46;6.70;;;5.77;;
15256;SDS011;7731;50.720;6.912;2023-03-05T13:10:20;8.17;;;5.87;;
15256;SDS011;7731;50.720;6.912;2023-03-05T13:12:56;8.37;;;6.87;;
15256;SDS011;7731;50.720;6.912;2023-03-05T13:15:28;9.70;;;6.60;;
15256;SDS011;7731;50.720;6.912;2023-03-05T13:18:04;8.67;;;6.57;;
15256;SDS011;7731;50.720;6.912;2023-03-05T13:20:43;11.00;;;7.87;;
15256;SDS011;7731;50.720;6.912;2023-03-05T13:23:17;9.40;;;8.50;;
15256;SDS011;7731;50.720;6.912;2023-03-05T13:25:56;9.50;;;7.10;;
15256;SDS011;7731;50.720;6.912;2023-03-05T13:28:34;9.10;;;6.57;;
15256;SDS011;7731;50.720;6.912;2023-03-05T13:31:11;12.33;;;7.23;;
15256;SDS011;7731;50.720;6.912;2023-03-05T13:33:51;7.83;;;7.03;;
15256;SDS011;7731;50.720;6.912;2023-03-05T13:36:25;9.57;;;7.20;;
15256;SDS011;7731;50.720;6.912;2023-03-05T13:38:56;7.70;;;6.93;;
15256;SDS011;7731;50.720;6.912;2023-03-05T13:41:26;9.00;;;6.23;;
15256;SDS011;7731;50.720;6.912;2023-03-05T13:44:01;9.37;;;6.77;;
15256;SDS011;7731;50.720;6.912;2023-03-05T13:46:35;6.80;;;6.10;;
15256;SDS011;7731;50.720;6.912;2023-03-05T13:49:18;12.63;;;8.27;;
15256;SDS011;7731;50.720;6.912;2023-03-05T13:51:52;8.70;;;6.00;;
15256;SDS011;7731;50.720;6.912;2023-03-05T13:54:29;7.03;;;5.60;;
15256;SDS011;7731;50.720;6.912;2023-03-05T13:57:00;6.53;;;5.33;;
15256;SDS011;7731;50.720;6.912;2023-03-05T13:59:37;7.43;;;5.33;;
15256;SDS011;7731;50.720;6.912;2023-03-05T14:02:14;6.30;;;5.00;;
15256;SDS011;7731;50.720;6.912;2023-03-05T14:04:48;10.00;;;9.10;;
15256;SDS011;7731;50.720;6.912;2023-03-05T14:07:24;9.43;;;7.37;;
15256;SDS011;7731;50.720;6.912;2023-03-05T14:10:01;12.23;;;10.87;;
15256;SDS011;7731;50.720;6.912;2023-03-05T14:12:52;12.27;;;9.60;;
15256;SDS011;7731;50.720;6.912;2023-03-05T14:15:30;11.60;;;8.50;;
15256;SDS011;7731;50.720;6.912;2023-03-05T14:20:58;6.47;;;5.37;;
15256;SDS011;7731;50.720;6.912;2023-03-05T14:23:37;10.03;;;9.03;;
15256;SDS011;7731;50.720;6.912;2023-03-05T14:26:24;6.17;;;5.57;;
15256;SDS011;7731;50.720;6.912;2023-03-05T14:29:12;9.83;;;7.57;;
15256;SDS011;7731;50.720;6.912;2023-03-05T14:31:51;17.40;;;13.13;;
15256;SDS011;7731;50.720;6.912;2023-03-05T14:34:26;19.37;;;12.73;;
15256;SDS011;7731;50.720;6.912;2023-03-05T14:37:01;12.47;;;8.90;;
15256;SDS011;7731;50.720;6.912;2023-03-05T14:39:38;7.83;;;5.50;;
15256;SDS011;7731;50.720;6.912;2023-03-05T14:45:12;6.03;;;4.53;;
15256;SDS011;7731;50.720;6.912;2023-03-05T14:47:48;10.47;;;9.47;;
15256;SDS011;7731;50.720;6.912;2023-03-05T14:50:28;6.70;;;5.17;;
15256;SDS011;7731;50.720;6.912;2023-03-05T14:53:03;7.40;;;6.57;;
15256;SDS011;7731;50.720;6.912;2023-03-05T14:55:38;8.97;;;5.93;;
15256;SDS011;7731;50.720;6.912;2023-03-05T14:58:14;5.17;;;4.53;;
15256;SDS011;7731;50.720;6.912;2023-03-05T15:00:50;11.30;;;8.53;;
15256;SDS011;7731;50.720;6.912;2023-03-05T15:03:27;36.60;;;26.60;;
15256;SDS011;7731;50.720;6.912;2023-03-05T15:06:01;7.77;;;5.77;;
15256;SDS011;7731;50.720;6.912;2023-03-05T15:08:38;6.00;;;4.70;;
15256;SDS011;7731;50.720;6.912;2023-03-05T15:11:10;8.33;;;5.17;;
15256;SDS011;7731;50.720;6.912;2023-03-05T15:13:40;7.87;;;4.93;;
15256;SDS011;7731;50.720;6.912;2023-03-05T15:16:11;5.10;;;4.60;;
15256;SDS011;7731;50.720;6.912;2023-03-05T15:18:51;7.90;;;4.63;;
15256;SDS011;7731;50.720;6.912;2023-03-05T15:21:21;4.50;;;4.10;;
15256;SDS011;7731;50.720;6.912;2023-03-05T15:23:51;6.00;;;4.13;;
15256;SDS011;7731;50.720;6.912;2023-03-05T15:26:21;4.73;;;4.20;;
15256;SDS011;7731;50.720;6.912;2023-03-05T15:28:51;5.40;;;3.97;;
15256;SDS011;7731;50.720;6.912;2023-03-05T15:31:22;5.07;;;4.00;;
15256;SDS011;7731;50.720;6.912;2023-03-05T15:33:56;4.37;;;4.00;;
15256;SDS011;7731;50.720;6.912;2023-03-05T15:36:26;6.93;;;3.93;;
15256;SDS011;7731;50.720;6.912;2023-03-05T15:38:58;5.03;;;3.93;;
15256;SDS011;7731;50.720;6.912;2023-03-05T15:41:29;5.20;;;4.40;;
15256;SDS011;7731;50.720;6.912;2023-03-05T15:43:59;6.17;;;4.70;;
15256;SDS011;7731;50.720;6.912;2023-03-05T15:46:29;5.97;;;4.33;;
15256;SDS011;7731;50.720;6.912;2023-03-05T15:49:02;5.37;;;4.47;;
15256;SDS011;7731;50.720;6.912;2023-03-05T15:51:32;5.67;;;4.60;;
15256;SDS011;7731;50.720;6.912;2023-03-05T15:54:03;5.87;;;4.37;;
15256;SDS011;7731;50.720;6.912;2023-03-05T15:56:33;8.70;;;4.93;;
15256;SDS011;7731;50.720;6.912;2023-03-05T15:59:07;6.90;;;5.30;;
15256;SDS011;7731;50.720;6.912;2023-03-05T16:01:38;7.47;;;4.60;;
15256;SDS011;7731;50.720;6.912;2023-03-05T16:04:25;6.47;;;5.00;;
15256;SDS011;7731;50.720;6.912;2023-03-05T16:06:56;10.33;;;5.30;;
15256;SDS011;7731;50.720;6.912;2023-03-05T16:09:33;11.50;;;10.40;;
15256;SDS011;7731;50.720;6.912;2023-03-05T16:12:08;10.33;;;8.13;;
15256;SDS011;7731;50.720;6.912;2023-03-05T16:14:43;7.83;;;7.10;;